Time;durP1;ratioP1;P1;durP2;ratioP2;P2;SDS_P1;SDS_P2;PMS_P1;PMS_P2;Temp;Humidity;BMP_temperature;BMP_pressure;BME280_temperature;BME280_humidity;BME280_pressure;Samples;Min_cycle;Max_cycle;Signal;HPM_P1;HPM_P2
2022/07/23 00:07:58;;;;;;;6.10;5.70;;;;;;;26.91;49.52;95630.88;5837465;24;20247;-91
2022/07/23 00:14:13;;;;;;;5.90;5.50;;;;;;;26.89;48.88;95612.66;5954742;23;20620;-91
2022/07/23 00:36:50;;;;;;;;;;;;;;;;;;;;;
2022/07/23 01:57:33;;;;;;;7.78;6.20;;;;;;;23.12;70.99;95823.56;4808346;29;20206;-91
2022/07/23 02:00:30;;;;;;;7.05;5.93;;;;;;;22.94;72.39;95793.22;4823935;29;20715;-90
2022/07/23 02:03:04;;;;;;;6.25;5.70;;;;;;;22.98;70.50;95815.31;4869167;29;20235;-90
2022/07/23 02:05:35;;;;;;;7.45;6.28;;;;;;;22.90;72.56;95801.88;4889170;29;20211;-90
2022/07/23 02:08:20;;;;;;;6.10;5.60;;;;;;;22.74;72.71;95804.28;4891184;29;20207;-89
2022/07/23 02:10:51;;;;;;;6.45;5.85;;;;;;;22.82;72.37;95825.94;4890628;29;20341;-89
2022/07/23 02:51:44;;;;;;;;;;;;;;;;;;;;;
2022/07/23 02:54:35;;;;;;;4.35;3.95;;;;;;;23.02;75.25;95769.13;4708020;30;20235;-91
2022/07/23 02:57:06;;;;;;;7.25;3.78;;;;;;;23.14;74.07;95792.59;4767230;29;20665;-90
2022/07/23 03:00:52;;;;;;;3.97;3.67;;;;;;;23.23;72.76;95827.09;4801609;29;20207;-90
2022/07/23 03:04:08;;;;;;;4.57;4.18;;;;;;;23.01;72.22;95864.72;4774390;29;20288;-90
2022/07/23 03:50:39;;;;;;;4.55;4.10;;;;;;;22.88;72.33;95746.16;4654244;30;20277;-90
2022/07/23 05:27:27;;;;;;;4.38;4.07;;;;;;;24.04;61.89;95686.44;4799295;29;20206;-86
2022/07/23 05:29:54;;;;;;;7.43;4.50;;;;;;;24.14;61.90;95690.13;4795075;29;20359;-83
2022/07/23 05:32:20;;;;;;;5.20;4.70;;;;;;;24.22;61.88;95693.06;4836655;29;20213;-83
2022/07/23 05:34:47;;;;;;;5.68;4.60;;;;;;;24.28;60.70;95693.88;4911341;29;20206;-82
2022/07/23 05:37:13;;;;;;;4.07;3.78;;;;;;;24.32;59.92;95694.94;4908123;29;20202;-80
2022/07/23 05:39:43;;;;;;;4.85;4.30;;;;;;;24.31;60.14;95681.00;4916811;29;20210;-87
2022/07/23 05:42:12;;;;;;;4.78;4.38;;;;;;;24.39;59.95;95679.72;4902504;29;20231;-87
2022/07/23 05:44:38;;;;;;;5.15;4.65;;;;;;;24.44;60.06;95688.38;4893918;29;20226;-87
2022/07/23 05:47:05;;;;;;;5.72;4.68;;;;;;;24.39;59.63;95701.56;4895361;29;20203;-87
2022/07/23 05:49:31;;;;;;;6.70;4.80;;;;;;;24.42;60.38;95721.31;4895086;29;20195;-87
2022/07/23 05:51:58;;;;;;;4.78;4.38;;;;;;;24.28;60.08;95726.25;4893180;29;20620;-88
2022/07/23 05:54:27;;;;;;;5.90;4.75;;;;;;;24.15;60.77;95731.97;4902909;29;20313;-87
2022/07/23 05:56:54;;;;;;;4.90;4.50;;;;;;;24.10;61.53;95737.22;4913230;29;20296;-87
2022/07/23 05:59:21;;;;;;;5.45;4.95;;;;;;;24.10;61.59;95742.47;4904306;29;20286;-87
2022/07/23 06:01:47;;;;;;;6.07;5.47;;;;;;;24.06;62.11;95744.81;4893298;29;20621;-89
2022/07/23 06:04:14;;;;;;;5.95;4.90;;;;;;;24.12;62.33;95740.38;4906544;29;20637;-89
2022/07/23 06:06:40;;;;;;;5.78;5.28;;;;;;;24.10;62.79;95732.75;4911115;29;20216;-89
2022/07/23 06:09:07;;;;;;;6.28;5.10;;;;;;;24.16;62.16;95725.66;4905991;29;20194;-87
2022/07/23 06:11:33;;;;;;;11.77;10.75;;;;;;;24.15;63.00;95721.47;4892979;29;20230;-87
2022/07/23 06:14:01;;;;;;;8.02;7.32;;;;;;;24.09;63.00;95709.31;4899047;29;20785;-88
2022/07/23 06:16:34;;;;;;;7.47;6.72;;;;;;;23.99;63.50;95711.94;4913065;29;20216;-86
2022/07/23 06:19:11;;;;;;;10.98;6.60;;;;;;;24.06;64.16;95699.31;4878702;29;20303;-86
2022/07/23 06:25:06;;;;;;;5.70;5.30;;;;;;;24.15;63.51;95674.09;4915250;29;20254;-87
2022/07/23 06:27:33;;;;;;;5.03;4.63;;;;;;;24.00;64.21;95672.22;4907075;29;20210;-85
2022/07/23 06:34:38;;;;;;;5.82;5.13;;;;;;;23.73;65.83;95690.78;4800993;29;20733;-87
2022/07/23 06:58:00;;;;;;;6.60;6.00;;;;;;;23.73;65.35;95780.19;4673852;30;20215;-85
2022/07/23 07:07:05;;;;;;;6.18;5.60;;;;;;;23.80;67.48;95779.19;4739023;30;20718;-90
2022/07/23 07:09:37;;;;;;;6.88;6.38;;;;;;;23.76;68.94;95777.03;4811173;29;20212;-88
2022/07/23 07:12:07;;;;;;;6.68;6.07;;;;;;;23.78;69.04;95776.78;4886646;29;20322;-89
2022/07/23 07:14:35;;;;;;;6.32;5.72;;;;;;;23.82;69.12;95767.34;4908866;29;20583;-88
2022/07/23 07:17:02;;;;;;;6.78;6.05;;;;;;;23.85;69.66;95771.31;4899925;29;20727;-87
2022/07/23 07:19:31;;;;;;;7.22;6.72;;;;;;;23.81;69.17;95762.34;4893188;29;20787;-88
2022/07/23 07:21:57;;;;;;;8.40;7.60;;;;;;;23.82;69.35;95767.34;4876475;29;20220;-88
2022/07/23 07:24:24;;;;;;;9.90;9.10;;;;;;;23.89;68.96;95772.38;4896216;29;20268;-88
2022/07/23 07:26:50;;;;;;;7.05;6.45;;;;;;;23.95;69.94;95760.84;4895378;29;20868;-88
2022/07/23 07:29:17;;;;;;;6.60;6.10;;;;;;;23.98;69.65;95766.38;4905246;29;20217;-88
2022/07/23 07:31:45;;;;;;;6.65;6.10;;;;;;;23.96;69.41;95771.09;4913792;29;20230;-88
2022/07/23 07:34:13;;;;;;;6.25;5.75;;;;;;;23.92;68.63;95770.03;4905140;29;20234;-88
2022/07/23 07:36:39;;;;;;;7.47;6.78;;;;;;;23.85;68.66;95780.00;4896767;29;20210;-87
2022/07/23 07:39:10;;;;;;;6.75;6.15;;;;;;;23.84;69.25;95785.50;4895591;29;20207;-87
2022/07/23 07:41:36;;;;;;;6.90;6.30;;;;;;;23.82;69.08;95785.75;4898117;29;20221;-87
2022/07/23 07:44:03;;;;;;;6.35;5.85;;;;;;;23.78;69.33;95787.31;4894706;29;20239;-87
2022/07/23 07:46:30;;;;;;;6.50;6.00;;;;;;;23.73;70.69;95790.69;4895027;29;20214;-87
2022/07/23 07:48:58;;;;;;;7.18;6.47;;;;;;;23.81;70.04;95807.06;4895484;29;20222;-87
2022/07/23 07:51:24;;;;;;;6.75;6.15;;;;;;;23.78;70.77;95810.97;4894636;29;20230;-87
2022/07/23 07:53:51;;;;;;;7.25;6.28;;;;;;;23.84;70.17;95809.19;4894683;29;20563;-87
2022/07/23 07:56:17;;;;;;;6.50;6.00;;;;;;;23.77;70.28;95806.75;4895444;29;20736;-87
2022/07/23 07:58:43;;;;;;;6.50;6.00;;;;;;;23.76;70.20;95802.56;4895468;29;20206;-87
2022/07/23 08:01:10;;;;;;;7.00;6.45;;;;;;;23.81;70.24;95802.59;4882743;29;20219;-87
2022/07/23 08:03:36;;;;;;;7.20;6.60;;;;;;;23.72;70.70;95804.09;4895659;29;20231;-86
2022/07/23 08:06:05;;;;;;;6.63;6.03;;;;;;;23.76;70.57;95784.16;4895181;29;20655;-86
2022/07/23 08:08:31;;;;;;;6.45;5.95;;;;;;;23.75;70.44;95785.97;4895967;29;20749;-87
2022/07/23 08:11:18;;;;;;;6.50;6.00;;;;;;;23.84;69.69;95783.69;4894855;29;20717;-87
2022/07/23 08:13:45;;;;;;;6.68;6.18;;;;;;;23.84;70.13;95796.03;4907421;29;20281;-88
2022/07/23 08:16:11;;;;;;;6.65;5.85;;;;;;;23.89;70.36;95801.31;4893422;29;20736;-86
2022/07/23 08:18:38;;;;;;;6.72;6.15;;;;;;;23.91;70.93;95801.84;4896325;29;20203;-86
2022/07/23 08:21:07;;;;;;;6.63;6.13;;;;;;;23.96;69.94;95800.03;4896231;29;20306;-87
2022/07/23 08:23:34;;;;;;;6.03;5.47;;;;;;;23.96;69.57;95796.63;4894381;29;20621;-87
2022/07/23 08:26:05;;;;;;;8.27;6.20;;;;;;;23.96;68.94;95800.03;4912791;29;20206;-86
2022/07/23 08:28:39;;;;;;;6.72;6.03;;;;;;;24.00;68.99;95795.84;4911450;29;20230;-87
2022/07/23 08:31:06;;;;;;;6.68;6.15;;;;;;;24.06;68.23;95794.03;4906489;29;20261;-88
2022/07/23 08:33:33;;;;;;;7.25;6.03;;;;;;;24.17;67.78;95797.50;4909749;29;20229;-87
2022/07/23 08:36:16;;;;;;;6.53;6.03;;;;;;;24.29;67.39;95791.00;4901669;29;20213;-86
2022/07/23 08:38:43;;;;;;;6.20;5.63;;;;;;;24.55;66.11;95794.53;4903102;29;20300;-89
2022/07/23 08:41:15;;;;;;;5.88;5.47;;;;;;;24.61;65.46;95798.75;4905121;29;20262;-88
2022/07/23 08:43:45;;;;;;;5.68;5.18;;;;;;;24.52;64.38;95789.78;4892541;29;20234;-87
2022/07/23 08:46:17;;;;;;;6.75;5.80;;;;;;;24.52;64.21;95795.03;4897245;29;20217;-88
2022/07/23 08:49:08;;;;;;;5.97;5.47;;;;;;;24.62;63.39;95792.44;4911624;29;20214;-89
2022/07/23 08:51:46;;;;;;;6.07;5.57;;;;;;;24.53;62.84;95801.88;4895137;29;20227;-88
2022/07/23 08:54:13;;;;;;;5.70;5.20;;;;;;;24.52;63.16;95799.50;4892098;29;20242;-85
2022/07/23 08:56:44;;;;;;;6.00;5.50;;;;;;;24.63;63.43;95807.16;4892979;29;20207;-88
2022/07/23 08:59:13;;;;;;;5.70;5.20;;;;;;;24.61;63.02;95833.00;4893731;29;20206;-87
2022/07/23 09:01:40;;;;;;;7.22;5.50;;;;;;;24.73;63.48;95861.72;4892332;29;20223;-87
2022/07/23 09:04:10;;;;;;;5.60;5.10;;;;;;;24.86;64.57;95855.16;4893769;29;20315;-88
2022/07/23 09:06:41;;;;;;;5.80;5.22;;;;;;;24.93;65.36;95845.97;4911163;29;20725;-87
2022/07/23 09:09:19;;;;;;;6.32;5.60;;;;;;;24.95;66.36;95857.06;4910145;29;20266;-88
2022/07/23 09:11:47;;;;;;;6.35;5.75;;;;;;;25.02;66.39;95852.34;4892007;29;20227;-87
2022/07/23 09:14:13;;;;;;;5.65;5.15;;;;;;;25.04;65.90;95857.34;4899964;29;20294;-88
2022/07/23 09:16:40;;;;;;;6.05;5.65;;;;;;;25.10;66.53;95853.69;4911726;29;20265;-87
2022/07/23 09:19:08;;;;;;;5.97;5.50;;;;;;;25.18;65.93;95858.44;4903931;29;20265;-87
2022/07/23 09:21:39;;;;;;;6.32;5.60;;;;;;;25.32;65.63;95856.06;4891739;29;20237;-87
2022/07/23 09:24:08;;;;;;;6.30;5.78;;;;;;;25.59;65.92;95861.09;4891151;29;20227;-86
2022/07/23 09:26:37;;;;;;;6.85;6.00;;;;;;;25.83;63.46;95851.59;4892059;29;20211;-86
2022/07/23 09:29:20;;;;;;;6.50;5.93;;;;;;;26.08;63.20;95840.22;4889839;29;20711;-88
2022/07/23 09:31:50;;;;;;;6.32;5.88;;;;;;;26.19;61.46;95847.03;4888605;29;20760;-87
2022/07/23 09:34:37;;;;;;;;;;;;;;;;;;;;;
2022/07/23 09:37:26;;;;;;;6.93;5.18;;;;;;;26.40;58.34;95856.50;4903368;29;20203;-88
2022/07/23 09:40:07;;;;;;;5.65;5.10;;;;;;;26.55;57.27;95858.31;4889630;29;20238;-87
2022/07/23 09:42:39;;;;;;;6.38;5.88;;;;;;;26.80;57.70;95849.47;4897351;29;20194;-87
2022/07/23 09:45:17;;;;;;;7.10;5.38;;;;;;;27.36;57.13;95852.59;4908648;29;20556;-88
2022/07/23 09:47:47;;;;;;;5.90;5.43;;;;;;;27.82;54.73;95849.59;4892996;29;20218;-88
2022/07/23 09:50:25;;;;;;;5.93;5.35;;;;;;;28.00;53.80;95856.03;4894971;29;20241;-87
2022/07/23 09:52:53;;;;;;;5.63;5.22;;;;;;;27.93;53.83;95842.34;4910589;29;20241;-89
2022/07/23 09:55:35;;;;;;;4.88;4.57;;;;;;;28.05;50.97;95838.25;4921753;29;20215;-88
2022/07/23 09:58:03;;;;;;;5.10;4.70;;;;;;;28.30;50.46;95841.72;4897655;29;20210;-88
2022/07/23 10:00:33;;;;;;;5.28;4.53;;;;;;;28.01;48.26;95820.56;4905155;29;20575;-89
2022/07/23 10:03:00;;;;;;;5.18;4.78;;;;;;;27.76;49.46;95832.97;4896202;29;20238;-88
2022/07/23 10:05:44;;;;;;;5.43;4.93;;;;;;;27.61;49.92;95835.75;4905972;29;20281;-89
2022/07/23 10:08:22;;;;;;;6.45;5.47;;;;;;;27.65;50.39;95825.41;4916617;29;20619;-88
2022/07/23 10:11:16;;;;;;;5.00;4.70;;;;;;;27.60;49.37;95831.53;4903066;29;20279;-89
2022/07/23 10:13:57;;;;;;;5.80;5.10;;;;;;;27.65;49.35;95823.56;4908188;29;20321;-89
2022/07/23 10:16:27;;;;;;;6.03;4.90;;;;;;;27.90;48.26;95819.09;4908978;29;20199;-88
2022/07/23 10:19:20;;;;;;;5.50;5.00;;;;;;;27.99;48.29;95825.34;4897402;29;20707;-89
2022/07/23 10:21:59;;;;;;;5.28;4.88;;;;;;;28.52;47.91;95818.94;4894053;29;20290;-89
2022/07/23 10:28:11;;;;;;;4.90;4.40;;;;;;;29.03;45.61;95814.84;4888710;29;20207;-89
2022/07/23 10:30:55;;;;;;;6.65;4.72;;;;;;;28.80;46.56;95808.53;4907324;29;20218;-89
2022/07/23 10:33:39;;;;;;;5.38;4.63;;;;;;;28.82;46.35;95801.88;4913633;29;20240;-89
2022/07/23 10:36:28;;;;;;;5.28;4.88;;;;;;;29.15;45.23;95804.56;4901530;29;20205;-88
2022/07/23 10:39:16;;;;;;;4.80;4.40;;;;;;;28.94;44.53;95805.94;4898269;29;20227;-88
2022/07/23 10:41:50;;;;;;;5.03;4.63;;;;;;;28.78;45.04;95800.84;4914705;29;20226;-88
2022/07/23 10:44:28;;;;;;;6.68;6.10;;;;;;;28.51;44.94;95796.16;4910431;29;20230;-89
2022/07/23 10:47:26;;;;;;;;;;;;;;;;;;;;;
2022/07/23 10:50:30;;;;;;;4.88;4.47;;;;;;;28.21;44.37;95795.75;4904049;29;20552;-89
2022/07/23 11:07:41;;;;;;;5.75;4.95;;;;;;;27.71;46.00;95803.13;4863432;29;20214;-88
2022/07/23 11:17:48;;;;;;;5.10;4.80;;;;;;;27.76;46.52;95780.03;4877654;29;20283;-87
2022/07/23 11:21:00;;;;;;;5.43;4.93;;;;;;;27.71;46.60;95774.78;4873268;29;20599;-88
2022/07/23 11:24:08;;;;;;;5.55;5.10;;;;;;;27.62;47.60;95781.78;4855854;29;20240;-86
2022/07/23 11:27:02;;;;;;;5.15;4.68;;;;;;;27.42;47.25;95781.94;4884603;29;20206;-83
2022/07/23 11:29:45;;;;;;;5.47;4.88;;;;;;;27.37;47.76;95788.03;4905705;29;20296;-84
2022/07/23 11:32:38;;;;;;;5.57;5.18;;;;;;;27.27;47.57;95788.16;4888181;29;20234;-88
2022/07/23 11:35:27;;;;;;;5.25;4.80;;;;;;;27.28;47.91;95789.72;4897949;29;20234;-86
2022/07/23 11:38:10;;;;;;;5.65;4.93;;;;;;;27.13;47.78;95787.97;4898817;29;20758;-86
2022/07/23 11:40:51;;;;;;;5.32;4.85;;;;;;;27.04;47.95;95791.50;4903103;29;20651;-88
2022/07/23 11:43:25;;;;;;;6.40;5.88;;;;;;;27.15;48.19;95785.84;4895812;29;20246;-87
2022/07/23 11:46:07;;;;;;;6.40;5.80;;;;;;;27.17;48.18;95783.72;4880496;29;20212;-88
2022/07/23 11:49:01;;;;;;;6.00;5.50;;;;;;;27.08;48.21;95782.72;4889973;29;20278;-87
2022/07/23 11:51:32;;;;;;;6.40;5.80;;;;;;;26.76;48.72;95782.38;4894849;29;20230;-86
2022/07/23 11:54:08;;;;;;;6.78;5.30;;;;;;;26.82;49.63;95789.22;4896138;29;20234;-85
2022/07/23 11:56:36;;;;;;;6.07;5.35;;;;;;;26.77;49.90;95794.53;4911607;29;20237;-83
2022/07/23 11:59:03;;;;;;;6.15;5.65;;;;;;;26.89;49.74;95795.00;4895539;29;20217;-83
2022/07/23 12:01:31;;;;;;;6.65;6.13;;;;;;;26.94;49.89;95780.97;4904133;29;20602;-84
2022/07/23 12:03:57;;;;;;;6.10;5.60;;;;;;;26.92;50.65;95775.94;4895103;29;20664;-86
2022/07/23 12:06:24;;;;;;;6.75;6.05;;;;;;;27.02;49.81;95783.81;4910877;29;20206;-81
2022/07/23 12:08:50;;;;;;;6.85;6.32;;;;;;;26.96;49.83;95778.84;4916535;29;20206;-82
2022/07/23 12:11:17;;;;;;;7.40;6.70;;;;;;;26.95;49.81;95782.56;4903567;29;20646;-82
2022/07/23 12:13:44;;;;;;;8.10;7.18;;;;;;;27.00;49.53;95780.66;4914743;29;20241;-82
2022/07/23 12:16:11;;;;;;;6.85;6.35;;;;;;;27.06;49.76;95776.16;4900959;29;20210;-81
2022/07/23 12:18:37;;;;;;;6.32;5.72;;;;;;;27.14;49.99;95773.69;4896817;29;20218;-82
2022/07/23 12:21:06;;;;;;;6.03;5.53;;;;;;;27.20;49.23;95773.66;4908833;29;20218;-82
2022/07/23 12:23:33;;;;;;;6.25;5.75;;;;;;;27.14;49.44;95778.19;4914611;29;20289;-83
2022/07/23 12:26:02;;;;;;;7.30;6.00;;;;;;;27.22;49.19;95777.59;4903892;29;20230;-83
2022/07/23 12:28:30;;;;;;;6.53;5.85;;;;;;;27.22;49.54;95779.44;4910562;29;20222;-82
2022/07/23 12:34:25;;;;;;;5.68;5.28;;;;;;;26.90;50.23;95788.66;4893209;29;20234;-86
2022/07/23 12:36:52;;;;;;;5.75;5.35;;;;;;;26.75;50.19;95778.94;4912387;29;20228;-86
2022/07/23 12:39:30;;;;;;;5.90;5.40;;;;;;;26.65;50.65;95779.00;4909794;29;20214;-85
2022/07/23 12:42:04;;;;;;;6.00;5.50;;;;;;;26.65;51.09;95778.22;4897431;29;20642;-87
2022/07/23 12:44:31;;;;;;;7.95;5.82;;;;;;;26.67;51.02;95787.47;4905543;29;20308;-87
2022/07/23 12:47:05;;;;;;;5.65;5.15;;;;;;;26.71;50.87;95777.13;4911472;29;20206;-89
2022/07/23 12:49:33;;;;;;;6.55;5.88;;;;;;;26.80;50.58;95789.50;4895487;29;20736;-85
2022/07/23 12:51:59;;;;;;;6.10;5.60;;;;;;;26.84;50.92;95784.44;4896588;29;20234;-84
2022/07/23 12:54:28;;;;;;;8.07;5.47;;;;;;;26.82;50.97;95781.28;4904261;29;20956;-83
2022/07/23 12:56:55;;;;;;;6.32;5.65;;;;;;;26.77;50.72;95784.75;4897845;29;20244;-84
2022/07/23 12:59:21;;;;;;;6.57;5.70;;;;;;;26.71;50.96;95785.06;4915468;29;20217;-84
2022/07/23 13:01:55;;;;;;;6.20;5.60;;;;;;;26.90;51.12;95787.84;4905173;29;20229;-85
2022/07/23 13:04:22;;;;;;;6.05;5.55;;;;;;;27.03;51.19;95781.97;4901551;29;20242;-84
2022/07/23 13:06:52;;;;;;;5.85;5.25;;;;;;;27.05;51.32;95790.41;4895921;29;20206;-84
2022/07/23 13:09:20;;;;;;;6.10;5.60;;;;;;;26.96;51.43;95792.84;4914361;29;20213;-84
2022/07/23 13:11:49;;;;;;;6.22;5.63;;;;;;;26.95;50.52;95790.47;4911480;29;20314;-85
2022/07/23 13:14:16;;;;;;;6.10;5.70;;;;;;;26.90;50.66;95793.16;4895888;29;20241;-85
2022/07/23 13:16:44;;;;;;;5.90;5.35;;;;;;;26.87;51.13;95788.41;4895470;29;20202;-85
2022/07/23 13:19:11;;;;;;;7.32;5.75;;;;;;;26.84;51.26;95793.16;4894453;29;20596;-85
2022/07/23 13:21:38;;;;;;;5.95;5.45;;;;;;;26.78;51.55;95790.81;4896829;29;20556;-84
2022/07/23 13:24:07;;;;;;;7.38;5.90;;;;;;;26.82;52.19;95797.16;4899506;29;20230;-84
2022/07/23 13:26:33;;;;;;;7.20;6.50;;;;;;;26.88;51.53;95797.91;4896356;29;20218;-84
2022/07/23 13:29:00;;;;;;;6.60;6.00;;;;;;;26.72;52.10;95790.09;4913752;29;20206;-84
2022/07/23 13:31:26;;;;;;;6.75;5.80;;;;;;;26.68;52.09;95793.53;4910370;29;20226;-85
2022/07/23 13:33:53;;;;;;;6.30;5.70;;;;;;;26.72;52.47;95805.16;4893644;29;20241;-85
2022/07/23 13:36:19;;;;;;;7.35;6.18;;;;;;;26.71;52.56;95787.72;4894625;29;20211;-85
2022/07/23 13:38:46;;;;;;;6.97;5.80;;;;;;;26.94;51.64;95786.25;4913105;29;20207;-85
2022/07/23 13:41:16;;;;;;;6.30;5.70;;;;;;;27.13;52.21;95777.38;4907855;29;20309;-85
2022/07/23 13:43:42;;;;;;;6.93;6.13;;;;;;;27.23;50.90;95786.31;4897819;29;20281;-85
2022/07/23 13:46:09;;;;;;;6.55;6.03;;;;;;;27.20;51.45;95781.59;4912094;29;20210;-88
2022/07/23 13:48:35;;;;;;;6.60;6.10;;;;;;;27.11;51.61;95790.13;4894034;29;20217;-86
2022/07/23 13:51:02;;;;;;;6.47;5.93;;;;;;;27.13;51.79;95790.59;4902413;29;20222;-84
2022/07/23 13:53:28;;;;;;;7.05;6.35;;;;;;;27.07;51.31;95785.66;4913841;29;20238;-86
2022/07/23 13:55:55;;;;;;;6.25;5.75;;;;;;;27.02;51.85;95785.69;4905972;29;20245;-85
2022/07/23 13:58:23;;;;;;;6.22;5.63;;;;;;;27.02;51.96;95781.19;4894644;29;20210;-85
2022/07/23 14:00:52;;;;;;;6.63;6.13;;;;;;;26.98;51.93;95780.16;4894697;29;20227;-85
2022/07/23 14:03:20;;;;;;;6.65;5.85;;;;;;;26.95;52.05;95783.34;4894509;29;20231;-86
2022/07/23 14:05:46;;;;;;;6.60;6.10;;;;;;;26.92;51.88;95785.72;4899963;29;20202;-84
2022/07/23 14:08:13;;;;;;;6.47;5.97;;;;;;;26.91;51.72;95786.78;4912963;29;20301;-84
2022/07/23 14:10:39;;;;;;;6.50;6.00;;;;;;;26.93;51.43;95785.47;4901325;29;20230;-85
2022/07/23 14:13:06;;;;;;;6.38;5.88;;;;;;;26.90;51.60;95780.72;4893501;29;20719;-86
2022/07/23 14:15:34;;;;;;;6.75;6.15;;;;;;;26.98;51.58;95766.94;4904684;29;20217;-85
2022/07/23 14:18:00;;;;;;;6.93;6.32;;;;;;;26.94;50.97;95776.47;4908254;29;20210;-85
2022/07/23 14:20:27;;;;;;;7.63;6.57;;;;;;;26.97;51.31;95773.28;4894920;29;20227;-85
2022/07/23 14:22:55;;;;;;;6.32;5.78;;;;;;;26.94;51.08;95783.59;4876376;29;20763;-85
2022/07/23 14:25:22;;;;;;;6.95;5.90;;;;;;;26.94;51.73;95783.59;4908023;29;20245;-85
2022/07/23 14:27:48;;;;;;;5.95;5.35;;;;;;;26.93;52.05;95782.81;4914553;29;20772;-84
2022/07/23 14:30:15;;;;;;;6.50;5.80;;;;;;;26.84;51.27;95784.44;4901034;29;20238;-85
2022/07/23 14:32:44;;;;;;;8.25;6.25;;;;;;;26.95;51.57;95775.41;4895775;29;20262;-83
2022/07/23 14:35:13;;;;;;;6.65;6.00;;;;;;;27.02;51.72;95777.75;4898547;29;20214;-86
2022/07/23 14:37:40;;;;;;;8.60;6.22;;;;;;;27.07;51.54;95769.78;4891716;29;20215;-85
2022/07/23 14:47:13;;;;;;;6.13;5.63;;;;;;;27.35;50.68;95768.22;4834262;29;20199;-86
2022/07/23 14:49:41;;;;;;;6.10;5.60;;;;;;;27.66;50.71;95753.69;4874772;29;20188;-84
2022/07/23 14:52:08;;;;;;;7.65;6.63;;;;;;;27.80;50.46;95749.31;4889156;29;20229;-84
2022/07/23 14:54:34;;;;;;;5.43;5.03;;;;;;;27.78;50.00;95738.22;4904233;29;20233;-84
2022/07/23 14:57:02;;;;;;;6.40;5.40;;;;;;;27.75;50.22;95735.34;4915483;29;20221;-85
2022/07/23 14:59:30;;;;;;;6.78;6.18;;;;;;;27.76;49.93;95728.97;4907172;29;20290;-86
2022/07/23 15:05:27;;;;;;;5.85;5.38;;;;;;;27.52;50.27;95742.94;4786620;29;20234;-85
2022/07/23 15:08:01;;;;;;;6.40;5.90;;;;;;;27.40;50.82;95749.69;4849010;29;20222;-85
2022/07/23 15:10:57;;;;;;;6.45;5.85;;;;;;;27.31;50.92;95743.44;4895355;29;20231;-86
2022/07/23 15:13:23;;;;;;;6.32;5.85;;;;;;;27.47;50.75;95742.22;4898779;29;20225;-85
2022/07/23 15:15:55;;;;;;;6.20;5.70;;;;;;;27.63;50.63;95742.88;4915031;29;20202;-85
2022/07/23 15:21:04;;;;;;;6.00;5.50;;;;;;;27.73;49.94;95746.19;4882746;29;20227;-84
2022/07/23 15:23:31;;;;;;;6.32;5.82;;;;;;;27.66;50.40;95751.06;4894650;29;20230;-84
2022/07/23 15:25:58;;;;;;;6.63;6.10;;;;;;;27.62;49.95;95747.38;4877135;29;20218;-83
2022/07/23 15:28:25;;;;;;;6.75;6.15;;;;;;;27.73;49.94;95756.78;4881629;29;20721;-84
2022/07/23 15:30:52;;;;;;;6.07;5.57;;;;;;;27.66;50.09;95766.94;4905600;29;20739;-85
2022/07/23 15:33:19;;;;;;;6.85;6.30;;;;;;;27.71;49.93;95768.75;4908414;29;20309;-84
2022/07/23 15:35:45;;;;;;;7.15;6.55;;;;;;;27.97;50.34;95770.03;4897723;29;20203;-83
2022/07/23 15:38:14;;;;;;;7.32;6.70;;;;;;;28.12;49.75;95774.34;4895954;29;20211;-84
2022/07/23 15:40:40;;;;;;;7.07;6.47;;;;;;;28.11;49.27;95776.22;4911982;29;20229;-84
2022/07/23 15:43:07;;;;;;;7.18;6.57;;;;;;;28.21;48.77;95774.56;4906095;29;20229;-85
2022/07/23 15:45:36;;;;;;;6.57;6.18;;;;;;;28.30;48.84;95767.56;4904237;29;20207;-85
2022/07/23 15:48:06;;;;;;;6.85;6.28;;;;;;;28.38;49.00;95770.38;4893463;29;20210;-85
2022/07/23 15:50:32;;;;;;;6.60;6.00;;;;;;;28.35;48.81;95763.00;4900729;29;20314;-85
2022/07/23 15:53:00;;;;;;;6.20;5.70;;;;;;;28.39;48.38;95761.34;4894478;29;20227;-86
2022/07/23 15:55:34;;;;;;;6.50;5.90;;;;;;;28.43;48.52;95761.56;4895281;29;20746;-87
2022/07/23 15:58:00;;;;;;;6.82;6.32;;;;;;;28.43;48.80;95770.31;4887025;29;20202;-86
2022/07/23 16:00:27;;;;;;;8.35;7.65;;;;;;;28.29;48.67;95769.41;4894827;29;20242;-85
2022/07/23 16:02:54;;;;;;;8.10;7.40;;;;;;;28.20;48.89;95765.81;4894388;29;20242;-86
2022/07/23 16:05:20;;;;;;;6.78;6.28;;;;;;;28.13;49.44;95773.28;4896043;29;20210;-86
2022/07/23 16:07:47;;;;;;;7.32;6.63;;;;;;;28.10;49.54;95763.25;4895592;29;20211;-85
2022/07/23 16:10:13;;;;;;;6.95;6.35;;;;;;;28.01;49.72;95760.47;4892107;29;20237;-86
2022/07/23 16:12:41;;;;;;;7.15;6.65;;;;;;;27.90;50.17;95760.88;4894754;29;20234;-86
2022/07/23 16:15:08;;;;;;;7.45;6.85;;;;;;;27.88;50.12;95766.44;4906851;29;20202;-85
2022/07/23 16:17:35;;;;;;;6.93;6.43;;;;;;;27.75;50.70;95772.38;4913961;29;20221;-86
2022/07/23 16:20:02;;;;;;;7.10;6.50;;;;;;;27.67;50.93;95773.00;4901717;29;20199;-85
2022/07/23 16:22:30;;;;;;;7.72;6.93;;;;;;;27.63;50.96;95766.69;4894391;29;20309;-85
2022/07/23 16:24:57;;;;;;;7.97;7.28;;;;;;;27.60;51.58;95773.31;4905144;29;20228;-86
2022/07/23 16:27:23;;;;;;;7.70;7.00;;;;;;;27.63;51.42;95766.69;4904924;29;20206;-86
2022/07/23 16:29:51;;;;;;;7.47;6.80;;;;;;;27.74;51.26;95760.22;4894435;29;20210;-86
2022/07/23 16:32:17;;;;;;;7.43;6.82;;;;;;;27.72;51.23;95767.66;4897224;29;20213;-86
2022/07/23 16:34:44;;;;;;;7.25;6.65;;;;;;;27.61;51.67;95766.97;4909248;29;20223;-85
2022/07/23 16:37:11;;;;;;;7.80;7.15;;;;;;;27.53;51.63;95767.53;4906794;29;20205;-84
2022/07/23 16:39:38;;;;;;;7.82;7.22;;;;;;;27.61;51.57;95763.53;4913687;29;20213;-87
2022/07/23 16:42:20;;;;;;;7.88;7.15;;;;;;;27.66;51.73;95768.78;4912938;29;20226;-89
2022/07/23 16:44:58;;;;;;;7.50;6.90;;;;;;;27.74;51.55;95765.50;4905064;29;20242;-86
2022/07/23 17:17:19;;;;;;;7.93;7.22;;;;;;;27.83;52.81;95772.56;4746498;29;20219;-88
2022/07/23 17:56:52;;;;;;;7.35;6.85;;;;;;;27.51;54.13;95788.22;4726178;30;20230;-85
2022/07/23 17:59:23;;;;;;;8.85;7.78;;;;;;;27.41;54.83;95789.06;4814582;29;20377;-85
2022/07/23 18:01:51;;;;;;;8.55;7.85;;;;;;;27.35;54.85;95792.81;4885277;29;20226;-84
2022/07/23 18:04:18;;;;;;;7.93;7.18;;;;;;;27.32;54.81;95785.47;4894033;29;20290;-85
2022/07/23 18:06:44;;;;;;;8.30;7.68;;;;;;;27.13;56.42;95798.53;4895222;29;20202;-85
2022/07/23 18:09:12;;;;;;;8.15;7.40;;;;;;;27.13;56.05;95808.34;4895169;29;20211;-85
2022/07/23 18:11:39;;;;;;;8.50;7.70;;;;;;;27.11;55.95;95808.63;4894606;29;20239;-85
2022/07/23 18:14:07;;;;;;;7.95;7.35;;;;;;;27.11;55.53;95800.69;4898546;29;20244;-85
2022/07/23 18:16:36;;;;;;;8.98;8.18;;;;;;;27.11;55.81;95807.84;4900157;29;20218;-84
2022/07/23 18:19:04;;;;;;;7.97;7.28;;;;;;;27.11;55.60;95816.56;4897189;29;20587;-84
2022/07/23 18:21:31;;;;;;;8.10;7.45;;;;;;;27.10;56.11;95812.34;4897843;29;20219;-85
2022/07/23 18:23:57;;;;;;;8.48;7.75;;;;;;;27.10;55.75;95820.25;4898398;29;20229;-85
2022/07/23 18:26:24;;;;;;;8.30;7.65;;;;;;;27.07;56.22;95812.88;4898340;29;20210;-84
2022/07/23 18:28:50;;;;;;;8.82;8.13;;;;;;;27.06;56.07;95815.78;4898109;29;20217;-84
2022/07/23 18:31:17;;;;;;;9.57;8.02;;;;;;;27.05;56.48;95824.78;4897285;29;20598;-85
2022/07/23 18:33:45;;;;;;;8.18;7.45;;;;;;;27.05;56.13;95830.88;4897521;29;20234;-84
2022/07/23 18:36:12;;;;;;;8.70;8.02;;;;;;;27.01;56.52;95829.81;4898426;29;20214;-85
2022/07/23 18:38:38;;;;;;;9.13;8.38;;;;;;;27.02;56.09;95835.91;4897672;29;20715;-85
2022/07/23 18:41:05;;;;;;;8.48;7.78;;;;;;;27.02;56.09;95839.34;4897466;29;20231;-85
2022/07/23 18:43:35;;;;;;;9.32;8.43;;;;;;;26.99;56.76;95831.94;4897203;29;20223;-85
2022/07/23 18:46:02;;;;;;;9.07;8.27;;;;;;;26.93;56.95;95829.59;4898298;29;20297;-85
2022/07/23 18:48:31;;;;;;;8.38;7.78;;;;;;;26.90;56.97;95835.44;4897486;29;20199;-84
2022/07/23 18:50:59;;;;;;;8.85;8.13;;;;;;;26.85;56.94;95844.16;4896741;29;20222;-85
2022/07/23 18:53:28;;;;;;;8.73;8.00;;;;;;;26.84;57.01;95848.66;4897009;29;20238;-85
2022/07/23 18:55:54;;;;;;;8.50;7.82;;;;;;;26.83;57.56;95846.28;4898048;29;20211;-84
2022/07/23 18:58:21;;;;;;;8.82;8.02;;;;;;;26.86;56.97;95851.03;4896965;29;20687;-85
2022/07/23 19:00:47;;;;;;;8.82;7.97;;;;;;;26.83;57.44;95851.56;4897692;29;20238;-85
2022/07/23 19:03:14;;;;;;;8.75;8.05;;;;;;;26.83;57.36;95864.78;4898045;29;20230;-84
2022/07/23 19:05:40;;;;;;;9.02;8.15;;;;;;;26.82;57.18;95863.22;4898725;29;20247;-84
2022/07/23 19:08:08;;;;;;;8.57;7.88;;;;;;;26.79;57.33;95871.66;4898299;29;20583;-84